Time;durP1;ratioP1;P1;durP2;ratioP2;P2;SDS_P1;SDS_P2;PMS_P1;PMS_P2;Temp;Humidity;BMP_temperature;BMP_pressure;BME280_temperature;BME280_humidity;BME280_pressure;Samples;Min_cycle;Max_cycle;Signal;HPM_P1;HPM_P2
2021/11/21 00:00:26;;;;;;;18.60;16.80;;;;;22.10;100366.00;;;;2038250;29;20213;-49
2021/11/21 00:01:27;;;;;;;18.77;16.80;;;;;22.10;100364.00;;;;2045496;29;20236;-48
2021/11/21 00:02:27;;;;;;;18.57;16.67;;;;;22.10;100368.00;;;;2045715;28;20212;-48
2021/11/21 00:03:27;;;;;;;19.40;17.53;;;;;22.10;100371.00;;;;2038844;29;20221;-49
2021/11/21 00:04:28;;;;;;;19.47;17.47;;;;;22.10;100358.00;;;;2038806;29;21033;-48
2021/11/21 00:05:28;;;;;;;19.30;17.50;;;;;22.10;100357.00;;;;2038741;29;20213;-48
2021/11/21 00:06:29;;;;;;;18.67;16.93;;;;;22.10;100357.00;;;;2038571;29;20635;-49
2021/11/21 00:07:29;;;;;;;19.13;16.60;;;;;22.10;100359.00;;;;2038823;29;20225;-48
2021/11/21 00:08:29;;;;;;;18.40;16.60;;;;;22.00;100370.00;;;;2037864;29;20257;-48
2021/11/21 00:09:30;;;;;;;18.20;16.50;;;;;22.10;100368.00;;;;2038903;29;20213;-47
2021/11/21 00:10:33;;;;;;;19.90;17.90;;;;;22.10;100381.00;;;;2032004;29;20826;-49
2021/11/21 00:11:34;;;;;;;19.90;17.90;;;;;22.10;100379.00;;;;2030920;29;20265;-47
2021/11/21 00:12:34;;;;;;;18.07;16.37;;;;;22.10;100382.00;;;;2037899;29;20914;-47
2021/11/21 00:13:34;;;;;;;18.10;16.33;;;;;22.10;100383.00;;;;2037912;29;20213;-48
2021/11/21 00:14:35;;;;;;;17.97;16.27;;;;;22.10;100390.00;;;;2031008;29;20300;-49
2021/11/21 00:15:35;;;;;;;18.07;16.43;;;;;22.00;100377.00;;;;2037392;29;20213;-49
2021/11/21 00:16:36;;;;;;;18.07;16.37;;;;;22.10;100373.00;;;;2038677;29;20651;-49
2021/11/21 00:17:36;;;;;;;18.47;16.60;;;;;22.00;100373.00;;;;2038605;29;20296;-47
2021/11/21 00:18:36;;;;;;;18.40;16.60;;;;;22.00;100372.00;;;;2038505;29;20228;-48
2021/11/21 00:19:39;;;;;;;18.70;16.90;;;;;22.10;100372.00;;;;2038744;29;20217;-46
2021/11/21 00:20:40;;;;;;;18.13;16.42;;;;;22.10;100367.00;;;;2038350;29;20213;-49
2021/11/21 00:21:40;;;;;;;17.33;15.73;;;;;22.00;100366.00;;;;2045726;29;20279;-48
2021/11/21 00:22:40;;;;;;;16.97;15.37;;;;;22.00;100372.00;;;;2045553;28;20243;-46
2021/11/21 00:23:41;;;;;;;18.13;16.33;;;;;22.00;100365.00;;;;2038645;29;20733;-47
2021/11/21 00:24:41;;;;;;;16.90;15.40;;;;;22.00;100366.00;;;;2034172;29;20220;-48
2021/11/21 00:25:42;;;;;;;16.80;15.20;;;;;22.00;100365.00;;;;2032170;29;20225;-49
2021/11/21 00:26:42;;;;;;;17.63;16.03;;;;;22.00;100369.00;;;;2031992;29;20284;-48
2021/11/21 00:27:42;;;;;;;16.97;15.37;;;;;22.00;100353.00;;;;2030884;29;20621;-49
2021/11/21 00:28:43;;;;;;;18.23;16.30;;;;;22.00;100356.00;;;;2030955;29;20217;-48
2021/11/21 00:29:43;;;;;;;17.17;15.67;;;;;22.00;100352.00;;;;2030683;29;20233;-46
2021/11/21 00:30:43;;;;;;;18.07;16.27;;;;;22.00;100350.00;;;;2030523;29;20708;-48
2021/11/21 00:31:44;;;;;;;17.93;16.20;;;;;22.00;100350.00;;;;2042916;29;20212;-48
2021/11/21 00:32:44;;;;;;;16.87;15.27;;;;;22.00;100346.00;;;;2045709;28;20216;-48
2021/11/21 00:33:45;;;;;;;17.53;15.93;;;;;22.00;100348.00;;;;2038648;29;20256;-48
2021/11/21 00:34:45;;;;;;;17.40;15.40;;;;;22.00;100345.00;;;;2038599;29;20228;-48
2021/11/21 00:35:45;;;;;;;16.00;14.50;;;;;22.00;100341.00;;;;2032666;29;20245;-46
2021/11/21 00:36:46;;;;;;;15.80;14.30;;;;;22.00;100341.00;;;;2037837;29;20220;-48
2021/11/21 00:37:46;;;;;;;17.07;15.37;;;;;22.00;100339.00;;;;2038010;29;20205;-48
2021/11/21 00:38:46;;;;;;;17.60;15.90;;;;;22.00;100335.00;;;;2030839;29;20214;-49
2021/11/21 00:39:47;;;;;;;17.37;15.70;;;;;21.90;100334.00;;;;2030708;29;20331;-49
2021/11/21 00:40:47;;;;;;;16.70;15.10;;;;;21.90;100334.00;;;;2030024;29;20233;-49
2021/11/21 00:41:47;;;;;;;15.80;14.30;;;;;21.90;100335.00;;;;2030605;29;20304;-49
2021/11/21 00:42:48;;;;;;;15.77;14.13;;;;;22.00;100332.00;;;;2028397;29;20390;-47
2021/11/21 00:43:49;;;;;;;18.00;16.30;;;;;22.00;100335.00;;;;2030483;29;20253;-49
2021/11/21 00:44:49;;;;;;;16.70;15.10;;;;;22.00;100333.00;;;;2030185;29;20478;-49
2021/11/21 00:45:50;;;;;;;17.57;15.80;;;;;22.00;100326.00;;;;2029540;29;20237;-49
2021/11/21 00:46:50;;;;;;;16.10;14.60;;;;;21.90;100320.00;;;;2030180;29;20258;-46
2021/11/21 00:47:50;;;;;;;17.13;15.43;;;;;21.90;100322.00;;;;2029717;29;20252;-48
2021/11/21 00:48:51;;;;;;;16.30;14.70;;;;;22.00;100318.00;;;;2037743;29;20617;-48
2021/11/21 00:49:51;;;;;;;16.30;14.70;;;;;22.00;100317.00;;;;2037428;29;20387;-49
2021/11/21 00:50:54;;;;;;;16.53;14.93;;;;;21.90;100313.00;;;;2037578;29;21001;-46
2021/11/21 00:51:54;;;;;;;15.95;14.55;;;;;22.00;100314.00;;;;2037700;29;20221;-48
2021/11/21 00:53:03;;;;;;;14.60;13.30;;;;;22.00;100315.00;;;;2037705;29;20272;-48
2021/11/21 00:54:08;;;;;;;17.15;15.63;;;;;21.90;100313.00;;;;2037425;29;20225;-48
2021/11/21 00:56:12;;;;;;;16.55;14.95;;;;;21.90;100307.00;;;;2031808;29;20586;-49
2021/11/21 00:57:13;;;;;;;15.50;14.03;;;;;21.90;100307.00;;;;2029992;29;20221;-46
2021/11/21 00:58:14;;;;;;;15.00;13.60;;;;;21.90;100305.00;;;;2034152;29;20775;-48
2021/11/21 00:59:19;;;;;;;15.93;14.43;;;;;22.00;100310.00;;;;2037869;29;20275;-48
2021/11/21 01:00:19;;;;;;;16.25;14.75;;;;;21.90;100295.00;;;;2037581;29;20261;-48
2021/11/21 01:01:19;;;;;;;16.63;15.03;;;;;22.00;100299.00;;;;2037310;29;20291;-49
2021/11/21 01:02:20;;;;;;;16.63;15.03;;;;;21.90;100304.00;;;;2045395;28;20227;-49
2021/11/21 01:03:21;;;;;;;15.23;13.73;;;;;21.90;100297.00;;;;2042428;29;20947;-49
2021/11/21 01:04:22;;;;;;;16.73;15.13;;;;;21.90;100298.00;;;;2038189;29;20219;-48
2021/11/21 01:05:22;;;;;;;14.13;12.80;;;;;21.90;100298.00;;;;2038130;29;20958;-49
2021/11/21 01:06:23;;;;;;;15.60;14.20;;;;;21.90;100298.00;;;;2038323;29;20217;-47
2021/11/21 01:07:24;;;;;;;15.88;14.23;;;;;21.90;100297.00;;;;2038151;29;20267;-49
2021/11/21 01:08:24;;;;;;;15.57;14.27;;;;;21.90;100300.00;;;;2035852;29;21083;-49
2021/11/21 01:09:26;;;;;;;16.57;15.10;;;;;21.90;100297.00;;;;2045343;29;20283;-48
2021/11/21 01:10:26;;;;;;;17.33;15.63;;;;;21.90;100305.00;;;;2044558;29;20314;-48
2021/11/21 01:11:26;;;;;;;15.33;13.73;;;;;21.90;100300.00;;;;2038070;29;20225;-49
2021/11/21 01:12:27;;;;;;;15.97;14.37;;;;;21.90;100299.00;;;;2045047;28;20229;-48
2021/11/21 01:13:27;;;;;;;14.63;13.30;;;;;21.80;100299.00;;;;2042369;29;20212;-49
2021/11/21 01:14:28;;;;;;;16.70;15.13;;;;;21.80;100290.00;;;;2037563;29;20224;-48
2021/11/21 01:15:28;;;;;;;15.33;13.97;;;;;21.80;100293.00;;;;2029997;29;20324;-48
2021/11/21 01:16:29;;;;;;;15.77;14.27;;;;;21.90;100291.00;;;;2029901;29;20709;-47
2021/11/21 01:17:29;;;;;;;15.77;14.17;;;;;21.80;100285.00;;;;2037622;29;20217;-48
2021/11/21 01:18:30;;;;;;;15.87;14.37;;;;;21.80;100282.00;;;;2035050;29;20252;-49
2021/11/21 01:19:31;;;;;;;15.45;14.02;;;;;21.90;100285.00;;;;2037595;29;20217;-48
2021/11/21 01:20:32;;;;;;;15.73;14.23;;;;;21.80;100287.00;;;;2036802;29;20898;-54
2021/11/21 01:21:33;;;;;;;15.63;14.27;;;;;21.90;100288.00;;;;2037511;29;20240;-48
2021/11/21 01:22:34;;;;;;;16.20;14.60;;;;;21.80;100288.00;;;;2037554;28;20229;-47
2021/11/21 01:23:35;;;;;;;16.27;14.80;;;;;21.80;100289.00;;;;2037192;29;20737;-47
2021/11/21 01:24:35;;;;;;;15.43;14.00;;;;;21.80;100286.00;;;;2035458;29;20228;-48
2021/11/21 01:25:36;;;;;;;16.23;14.63;;;;;21.80;100283.00;;;;2032376;29;20249;-48
2021/11/21 01:26:37;;;;;;;14.70;13.20;;;;;21.80;100287.00;;;;2034687;29;20231;-46
2021/11/21 01:28:07;;;;;;;16.30;14.73;;;;;21.80;100278.00;;;;2035297;29;20524;-48
2021/11/21 01:29:07;;;;;;;15.25;13.90;;;;;21.80;100281.00;;;;2027735;29;20442;-48
2021/11/21 01:30:10;;;;;;;15.20;13.80;;;;;21.80;100277.00;;;;2033760;28;20290;-49
2021/11/21 01:31:10;;;;;;;14.38;13.07;;;;;21.80;100281.00;;;;2032819;28;20218;-47
2021/11/21 01:32:11;;;;;;;15.90;14.30;;;;;21.80;100275.00;;;;2031782;29;20201;-48
2021/11/21 01:33:11;;;;;;;15.10;13.80;;;;;21.80;100282.00;;;;2028456;29;20210;-48
2021/11/21 01:34:11;;;;;;;15.60;14.00;;;;;21.80;100280.00;;;;2032182;29;20596;-49
2021/11/21 01:35:12;;;;;;;14.50;13.10;;;;;21.80;100275.00;;;;2030212;29;20206;-47
2021/11/21 01:36:12;;;;;;;15.77;14.27;;;;;21.80;100279.00;;;;2030249;29;20213;-48
2021/11/21 01:37:13;;;;;;;16.73;15.13;;;;;21.80;100281.00;;;;2034126;29;20766;-46
2021/11/21 01:38:13;;;;;;;15.03;13.53;;;;;21.80;100270.00;;;;2035358;29;20709;-48
2021/11/21 01:39:13;;;;;;;16.23;14.73;;;;;21.80;100269.00;;;;2037535;29;20224;-49
2021/11/21 01:40:15;;;;;;;15.27;13.67;;;;;21.80;100269.00;;;;2037546;29;20224;-48
2021/11/21 01:41:15;;;;;;;14.98;13.48;;;;;21.80;100271.00;;;;2037582;29;20271;-47
2021/11/21 01:42:15;;;;;;;15.43;14.03;;;;;21.80;100274.00;;;;2037873;29;20740;-47
2021/11/21 01:43:16;;;;;;;14.70;13.40;;;;;21.80;100265.00;;;;2037087;29;20216;-48
2021/11/21 01:46:13;;;;;;;15.00;13.60;;;;;21.70;100260.00;;;;2030828;28;20209;-49
2021/11/21 01:47:13;;;;;;;14.93;13.60;;;;;21.80;100271.00;;;;2029935;29;20213;-49
2021/11/21 01:48:14;;;;;;;15.10;13.70;;;;;21.70;100271.00;;;;2027691;29;20252;-48
2021/11/21 01:49:14;;;;;;;14.17;12.87;;;;;21.70;100267.00;;;;2029856;29;20217;-47
2021/11/21 01:50:29;;;;;;;15.03;13.73;;;;;21.70;100266.00;;;;2029717;29;20225;-46
2021/11/21 01:51:29;;;;;;;15.40;13.93;;;;;21.70;100270.00;;;;2037072;29;21098;-48
2021/11/21 01:52:30;;;;;;;16.43;14.83;;;;;21.70;100267.00;;;;2037018;29;20304;-46
2021/11/21 01:53:30;;;;;;;14.77;13.37;;;;;21.80;100269.00;;;;2037168;29;20562;-47
2021/11/21 01:54:31;;;;;;;15.37;13.97;;;;;21.70;100269.00;;;;2033531;28;20209;-48
2021/11/21 01:55:31;;;;;;;15.27;13.90;;;;;21.70;100264.00;;;;2033212;28;20514;-49
2021/11/21 01:56:31;;;;;;;16.80;15.30;;;;;21.70;100260.00;;;;2032992;28;20248;-49
2021/11/21 01:57:32;;;;;;;15.00;13.53;;;;;21.70;100268.00;;;;2029264;29;20317;-48
2021/11/21 01:58:33;;;;;;;14.63;13.23;;;;;21.70;100266.00;;;;2030392;29;20209;-48
2021/11/21 01:59:34;;;;;;;15.07;13.65;;;;;21.70;100262.00;;;;2037307;28;20873;-48
2021/11/21 02:00:37;;;;;;;15.15;13.65;;;;;21.70;100259.00;;;;2036598;28;20264;-48
2021/11/21 02:01:37;;;;;;;14.95;13.60;;;;;21.70;100255.00;;;;2044010;28;20244;-49
2021/11/21 02:02:38;;;;;;;15.07;13.70;;;;;21.70;100250.00;;;;2038306;28;20216;-49
2021/11/21 02:03:39;;;;;;;15.37;14.03;;;;;21.70;100252.00;;;;2029634;29;20230;-48
2021/11/21 02:04:39;;;;;;;14.07;12.80;;;;;21.70;100240.00;;;;2025181;29;20480;-53
2021/11/21 02:05:40;;;;;;;13.80;12.50;;;;;21.70;100248.00;;;;2029798;29;20260;-51
2021/11/21 02:06:40;;;;;;;15.47;14.17;;;;;21.70;100248.00;;;;2029492;29;20233;-48
2021/11/21 02:07:42;;;;;;;15.57;14.07;;;;;21.70;100242.00;;;;2029511;29;20221;-49
2021/11/21 02:09:23;;;;;;;14.95;13.65;;;;;21.70;100236.00;;;;2029746;29;20213;-47
2021/11/21 02:10:23;;;;;;;14.93;13.50;;;;;21.70;100231.00;;;;2029747;28;20224;-47
2021/11/21 02:11:25;;;;;;;14.20;12.90;;;;;21.70;100230.00;;;;2032810;28;20213;-48
2021/11/21 02:12:25;;;;;;;14.18;12.95;;;;;21.70;100234.00;;;;2034096;28;20215;-46
2021/11/21 02:13:25;;;;;;;15.53;14.13;;;;;21.70;100236.00;;;;2031080;29;20216;-48
2021/11/21 02:14:29;;;;;;;14.43;13.03;;;;;21.70;100226.00;;;;2032805;29;20221;-48
2021/11/21 02:15:29;;;;;;;13.50;12.20;;;;;21.70;100236.00;;;;2032995;29;20726;-47
2021/11/21 02:16:30;;;;;;;15.63;14.13;;;;;21.70;100231.00;;;;2030733;29;20228;-46
2021/11/21 02:17:31;;;;;;;14.27;12.95;;;;;21.70;100231.00;;;;2023607;29;20230;-49
2021/11/21 02:18:31;;;;;;;13.83;12.60;;;;;21.70;100233.00;;;;2022186;29;20551;-49
2021/11/21 02:19:31;;;;;;;13.50;12.30;;;;;21.70;100220.00;;;;2022047;29;20312;-46
2021/11/21 02:20:34;;;;;;;13.30;12.10;;;;;21.70;100220.00;;;;2021525;29;20753;-48
2021/11/21 02:21:35;;;;;;;14.73;13.43;;;;;21.70;100229.00;;;;2021980;29;20214;-48
2021/11/21 02:22:40;;;;;;;14.53;13.17;;;;;21.70;100224.00;;;;2021976;29;20322;-48
2021/11/21 02:23:40;;;;;;;13.80;12.57;;;;;21.70;100222.00;;;;2026293;29;20221;-48
2021/11/21 02:24:41;;;;;;;13.17;11.97;;;;;21.70;100218.00;;;;2024971;29;20218;-49
2021/11/21 02:25:41;;;;;;;13.37;12.13;;;;;21.70;100204.00;;;;2022080;29;20242;-48
2021/11/21 02:26:42;;;;;;;13.17;11.97;;;;;21.50;100214.00;;;;2029775;29;20328;-49
2021/11/21 02:27:42;;;;;;;15.03;13.60;;;;;21.70;100210.00;;;;2029655;29;20233;-48
2021/11/21 02:28:42;;;;;;;13.33;12.07;;;;;21.70;100205.00;;;;2021500;29;20946;-51
2021/11/21 02:29:43;;;;;;;14.37;13.07;;;;;21.60;100212.00;;;;2022359;29;20597;-51
2021/11/21 02:30:43;;;;;;;14.07;12.87;;;;;21.60;100205.00;;;;2021755;29;20228;-51
2021/11/21 02:31:44;;;;;;;14.60;13.30;;;;;21.70;100208.00;;;;2023842;29;20218;-49
2021/11/21 02:32:49;;;;;;;13.20;12.00;;;;;21.60;100204.00;;;;2024341;29;20700;-47
2021/11/21 02:33:50;;;;;;;13.75;12.55;;;;;21.60;100206.00;;;;2024549;29;20222;-49
2021/11/21 02:34:51;;;;;;;13.23;12.02;;;;;21.60;100208.00;;;;2024740;29;20214;-48
2021/11/21 02:35:55;;;;;;;12.67;11.57;;;;;21.60;100195.00;;;;2027804;29;20217;-48
2021/11/21 02:36:55;;;;;;;13.13;11.88;;;;;21.60;100206.00;;;;2031748;29;20297;-48
2021/11/21 02:37:55;;;;;;;12.63;11.53;;;;;21.60;100198.00;;;;2027813;29;20213;-49
2021/11/21 02:38:56;;;;;;;13.20;12.00;;;;;21.60;100204.00;;;;2027696;29;20707;-47
2021/11/21 02:39:56;;;;;;;13.23;12.13;;;;;21.60;100204.00;;;;2027334;29;20953;-48
2021/11/21 02:40:57;;;;;;;13.03;11.83;;;;;21.60;100206.00;;;;2023950;29;20233;-47
2021/11/21 02:41:57;;;;;;;12.40;11.20;;;;;21.60;100201.00;;;;2024452;29;20313;-48
2021/11/21 02:42:58;;;;;;;12.27;11.23;;;;;21.60;100200.00;;;;2024210;29;20859;-48
2021/11/21 02:43:58;;;;;;;12.87;11.70;;;;;21.60;100201.00;;;;2031590;29;20950;-48
2021/11/21 02:44:58;;;;;;;12.30;11.20;;;;;21.60;100193.00;;;;2032738;29;20228;-46
2021/11/21 02:45:59;;;;;;;12.20;11.10;;;;;21.60;100200.00;;;;2027120;29;20222;-47
2021/11/21 02:46:59;;;;;;;12.97;11.80;;;;;21.60;100201.00;;;;2027058;29;20218;-48
2021/11/21 02:47:59;;;;;;;13.47;12.10;;;;;21.60;100187.00;;;;2026582;29;20222;-47
2021/11/21 02:49:00;;;;;;;13.63;12.43;;;;;21.60;100193.00;;;;2032727;29;20664;-48
2021/11/21 02:50:02;;;;;;;14.10;12.80;;;;;21.50;100202.00;;;;2033567;29;20299;-48
2021/11/21 02:51:04;;;;;;;12.70;11.60;;;;;21.60;100181.00;;;;2038901;29;20217;-49
2021/11/21 02:52:05;;;;;;;14.10;12.90;;;;;21.60;100190.00;;;;2029315;29;20214;-49
2021/11/21 02:53:05;;;;;;;13.90;12.70;;;;;21.60;100181.00;;;;2026150;29;20975;-49
2021/11/21 02:54:05;;;;;;;13.50;12.30;;;;;21.60;100179.00;;;;2027550;29;20483;-48
2021/11/21 02:55:06;;;;;;;13.03;11.83;;;;;21.60;100178.00;;;;2025944;29;20226;-48
2021/11/21 02:56:09;;;;;;;13.73;12.53;;;;;21.60;100178.00;;;;2026042;29;20541;-49
2021/11/21 02:57:09;;;;;;;13.35;12.25;;;;;21.50;100179.00;;;;2024669;29;20745;-47
2021/11/21 02:58:09;;;;;;;13.60;12.30;;;;;21.50;100168.00;;;;2024433;29;20226;-46
2021/11/21 02:59:10;;;;;;;12.63;11.53;;;;;21.60;100147.00;;;;2024457;29;20250;-48
2021/11/21 03:00:11;;;;;;;13.90;12.70;;;;;21.60;100173.00;;;;2024523;29;20803;-48
2021/11/21 03:01:16;;;;;;;13.65;12.45;;;;;21.60;100172.00;;;;2023839;29;20636;-46
2021/11/21 03:02:18;;;;;;;13.55;12.38;;;;;21.60;100170.00;;;;2027563;29;20778;-49
2021/11/21 03:03:18;;;;;;;13.18;11.88;;;;;21.60;100170.00;;;;2028595;29;20249;-46
2021/11/21 03:04:23;;;;;;;12.83;11.73;;;;;21.60;100164.00;;;;2024262;29;20253;-49
2021/11/21 03:05:23;;;;;;;14.50;13.20;;;;;21.50;100170.00;;;;2024538;29;20214;-50
2021/11/21 03:06:24;;;;;;;13.33;12.23;;;;;21.60;100161.00;;;;2024366;29;20312;-47
2021/11/21 03:07:24;;;;;;;13.47;12.27;;;;;21.60;100157.00;;;;2024535;29;20694;-47
2021/11/21 03:08:25;;;;;;;13.53;12.30;;;;;21.60;100164.00;;;;2024596;29;20302;-48
2021/11/21 03:09:25;;;;;;;13.57;12.37;;;;;21.60;100168.00;;;;2024439;29;20228;-49
2021/11/21 03:10:27;;;;;;;13.53;12.33;;;;;21.50;100160.00;;;;2024078;29;20222;-49
2021/11/21 03:11:34;;;;;;;13.68;12.48;;;;;21.50;100156.00;;;;2024464;29;20832;-48
2021/11/21 03:12:34;;;;;;;13.38;12.18;;;;;21.60;100164.00;;;;2027885;29;20241;-49
2021/11/21 03:13:34;;;;;;;13.47;12.17;;;;;21.50;100157.00;;;;2031544;29;20221;-46
2021/11/21 03:14:35;;;;;;;12.50;11.30;;;;;21.50;100156.00;;;;2026256;29;20229;-47
2021/11/21 03:15:35;;;;;;;13.53;12.33;;;;;21.50;100158.00;;;;2024495;29;20210;-48
2021/11/21 03:16:36;;;;;;;13.20;12.00;;;;;21.50;100161.00;;;;2024176;29;20667;-47
2021/11/21 03:17:38;;;;;;;14.50;13.20;;;;;21.60;100161.00;;;;2024372;29;21050;-48
2021/11/21 03:18:39;;;;;;;14.30;13.00;;;;;21.50;100150.00;;;;2024451;29;20840;-47
2021/11/21 03:19:39;;;;;;;12.90;11.70;;;;;21.50;100154.00;;;;2024606;29;20254;-48
2021/11/21 03:20:39;;;;;;;14.23;12.93;;;;;21.50;100147.00;;;;2023997;29;20706;-48
2021/11/21 03:21:40;;;;;;;12.73;11.57;;;;;21.50;100154.00;;;;2024738;29;20586;-47
2021/11/21 03:22:41;;;;;;;14.30;13.00;;;;;21.50;100149.00;;;;2028977;29;20292;-49
2021/11/21 03:23:41;;;;;;;14.27;12.97;;;;;21.50;100138.00;;;;2028589;29;20225;-47
2021/11/21 03:24:42;;;;;;;13.73;12.50;;;;;21.40;100137.00;;;;2026240;29;20538;-48
2021/11/21 03:25:42;;;;;;;14.17;12.87;;;;;21.50;100130.00;;;;2023937;29;20703;-48
2021/11/21 03:26:43;;;;;;;12.90;11.80;;;;;21.50;100138.00;;;;2024346;29;20225;-48
2021/11/21 03:27:43;;;;;;;13.30;12.17;;;;;21.50;100146.00;;;;2024144;29;20222;-48
2021/11/21 03:28:44;;;;;;;13.93;12.63;;;;;21.50;100139.00;;;;2024382;29;20230;-47
2021/11/21 03:29:44;;;;;;;13.47;12.30;;;;;21.50;100143.00;;;;2024429;29;20229;-49
2021/11/21 03:30:44;;;;;;;13.53;12.33;;;;;21.50;100142.00;;;;2030285;29;20401;-48
2021/11/21 03:31:45;;;;;;;14.03;12.73;;;;;21.50;100136.00;;;;2033481;29;20781;-49
2021/11/21 03:32:46;;;;;;;13.80;12.50;;;;;21.50;100140.00;;;;2031247;29;20269;-48
2021/11/21 03:33:46;;;;;;;12.97;11.80;;;;;21.50;100132.00;;;;2024091;29;20210;-48
2021/11/21 03:34:46;;;;;;;14.07;12.77;;;;;21.50;100126.00;;;;2031680;29;20461;-48
2021/11/21 03:35:47;;;;;;;14.10;12.80;;;;;21.50;100133.00;;;;2031517;29;20223;-49
2021/11/21 03:36:47;;;;;;;14.47;13.07;;;;;21.50;100129.00;;;;2024447;29;20676;-48
2021/11/21 03:37:47;;;;;;;14.00;12.60;;;;;21.50;100133.00;;;;2024391;29;20608;-49
2021/11/21 03:38:48;;;;;;;14.20;13.00;;;;;21.50;100123.00;;;;2024346;29;20222;-49
2021/11/21 03:39:49;;;;;;;14.37;12.93;;;;;21.50;100131.00;;;;2024372;29;20263;-46
2021/11/21 03:40:49;;;;;;;13.27;11.98;;;;;21.50;100119.00;;;;2030344;29;20288;-47
2021/11/21 03:41:50;;;;;;;14.43;13.03;;;;;21.40;100123.00;;;;2031731;29;20300;-47
2021/11/21 03:42:51;;;;;;;13.75;12.43;;;;;21.40;100122.00;;;;2030512;29;20703;-49
2021/11/21 03:43:51;;;;;;;14.23;12.90;;;;;21.40;100124.00;;;;2031588;29;20226;-48
2021/11/21 03:44:51;;;;;;;14.07;12.67;;;;;21.50;100117.00;;;;2028869;29;20740;-48
2021/11/21 03:45:52;;;;;;;14.23;12.93;;;;;21.40;100115.00;;;;2031021;29;20304;-49
2021/11/21 03:46:52;;;;;;;14.83;13.53;;;;;21.40;100122.00;;;;2030980;29;20222;-52
2021/11/21 03:47:52;;;;;;;15.40;13.90;;;;;21.50;100125.00;;;;2030739;29;20236;-47
2021/11/21 03:48:54;;;;;;;12.90;11.67;;;;;21.50;100122.00;;;;2031553;29;20273;-51
2021/11/21 03:49:54;;;;;;;14.45;13.10;;;;;21.40;100112.00;;;;2031486;29;20230;-48
2021/11/21 03:50:55;;;;;;;13.87;12.57;;;;;21.50;100115.00;;;;2030994;29;20220;-47
2021/11/21 03:51:55;;;;;;;12.77;11.67;;;;;21.40;100112.00;;;;2027468;29;20222;-49
2021/11/21 03:52:55;;;;;;;13.50;12.20;;;;;21.40;100118.00;;;;2026912;29;20308;-48
2021/11/21 03:53:56;;;;;;;14.80;13.30;;;;;21.50;100121.00;;;;2027333;29;20215;-49
2021/11/21 03:54:56;;;;;;;14.47;13.17;;;;;21.50;100115.00;;;;2034221;29;20229;-47
2021/11/21 03:55:56;;;;;;;14.57;13.30;;;;;21.40;100119.00;;;;2033926;29;20285;-49
2021/11/21 03:56:57;;;;;;;13.93;12.63;;;;;21.40;100115.00;;;;2026813;29;20226;-47
2021/11/21 03:57:57;;;;;;;13.33;12.07;;;;;21.40;100110.00;;;;2023862;29;20225;-48
2021/11/21 03:58:57;;;;;;;13.80;12.60;;;;;21.40;100113.00;;;;2023716;29;20587;-48
2021/11/21 03:59:58;;;;;;;13.70;12.40;;;;;21.40;100110.00;;;;2023810;29;20399;-48
2021/11/21 04:00:59;;;;;;;12.93;11.77;;;;;21.50;100116.00;;;;2023090;29;20214;-48
2021/11/21 04:01:59;;;;;;;13.53;12.33;;;;;21.40;100111.00;;;;2024572;29;20298;-47
2021/11/21 04:03:00;;;;;;;14.10;12.80;;;;;21.40;100107.00;;;;2025858;29;20226;-47
2021/11/21 04:04:00;;;;;;;14.03;12.73;;;;;21.40;100116.00;;;;2025764;29;20274;-47
2021/11/21 04:05:00;;;;;;;14.47;13.10;;;;;21.40;100113.00;;;;2034735;29;20230;-48
2021/11/21 04:06:01;;;;;;;13.47;12.27;;;;;21.40;100116.00;;;;2037994;29;20251;-48
2021/11/21 04:07:01;;;;;;;13.53;12.23;;;;;21.40;100104.00;;;;2031492;29;20214;-49
2021/11/21 04:08:01;;;;;;;13.87;12.47;;;;;21.40;100112.00;;;;2031414;29;20222;-47
2021/11/21 04:09:02;;;;;;;13.97;12.60;;;;;21.40;100114.00;;;;2031341;29;20222;-47
2021/11/21 04:10:03;;;;;;;13.80;12.43;;;;;21.50;100102.00;;;;2024606;29;20662;-48
2021/11/21 04:11:03;;;;;;;13.32;12.15;;;;;21.40;100109.00;;;;2030053;29;20320;-48
2021/11/21 04:12:04;;;;;;;13.90;12.60;;;;;21.40;100105.00;;;;2030643;29;20230;-47
2021/11/21 04:13:05;;;;;;;12.13;11.13;;;;;21.40;100107.00;;;;2023424;29;20238;-48
2021/11/21 04:14:05;;;;;;;12.17;11.07;;;;;21.40;100103.00;;;;2023568;29;20501;-48
2021/11/21 04:15:06;;;;;;;12.40;11.30;;;;;21.40;100112.00;;;;2022560;29;20222;-49
2021/11/21 04:16:06;;;;;;;13.00;11.77;;;;;21.40;100108.00;;;;2024134;29;20230;-47
2021/11/21 04:17:07;;;;;;;12.73;11.50;;;;;21.40;100103.00;;;;2026820;29;20274;-49
2021/11/21 04:18:09;;;;;;;13.53;12.23;;;;;21.40;100108.00;;;;2024225;29;20222;-48
2021/11/21 04:19:09;;;;;;;13.35;12.15;;;;;21.40;100107.00;;;;2023320;29;20226;-48
2021/11/21 04:20:10;;;;;;;12.57;11.37;;;;;21.40;100098.00;;;;2023362;29;20844;-46
2021/11/21 04:21:10;;;;;;;12.90;11.70;;;;;21.40;100104.00;;;;2022973;29;20218;-47
2021/11/21 04:22:11;;;;;;;12.73;11.53;;;;;21.40;100101.00;;;;2023476;29;20463;-48
2021/11/21 04:23:11;;;;;;;13.30;12.10;;;;;21.30;100094.00;;;;2023648;29;20219;-48
2021/11/21 04:24:15;;;;;;;12.60;11.33;;;;;21.40;100086.00;;;;2023708;29;20218;-49
2021/11/21 04:25:15;;;;;;;12.20;11.10;;;;;21.40;100099.00;;;;2023496;29;20225;-48
2021/11/21 04:26:15;;;;;;;12.27;11.17;;;;;21.40;100106.00;;;;2023291;29;20276;-47
2021/11/21 04:27:16;;;;;;;13.27;12.10;;;;;21.30;100100.00;;;;2023428;29;20329;-48
2021/11/21 04:28:16;;;;;;;12.00;10.90;;;;;21.40;100091.00;;;;2030596;29;20225;-49
2021/11/21 04:29:16;;;;;;;11.80;10.80;;;;;21.40;100099.00;;;;2030708;29;20232;-49
2021/11/21 04:30:17;;;;;;;12.37;11.27;;;;;21.40;100098.00;;;;2023336;29;20305;-49
2021/11/21 04:31:17;;;;;;;12.07;10.97;;;;;21.40;100097.00;;;;2023152;29;20300;-47
2021/11/21 04:32:18;;;;;;;11.57;10.57;;;;;21.40;100094.00;;;;2021350;29;20214;-48
2021/11/21 04:33:18;;;;;;;12.37;11.30;;;;;21.40;100091.00;;;;2023170;29;20222;-48
2021/11/21 04:34:18;;;;;;;13.23;12.03;;;;;21.30;100099.00;;;;2023136;29;20230;-48
2021/11/21 04:35:19;;;;;;;13.20;12.00;;;;;21.30;100088.00;;;;2023049;29;20222;-49
2021/11/21 04:36:20;;;;;;;12.30;11.20;;;;;21.30;100082.00;;;;2028116;29;20270;-48
2021/11/21 04:37:20;;;;;;;12.83;11.63;;;;;21.40;100093.00;;;;2034512;29;20248;-50
2021/11/21 04:38:23;;;;;;;13.53;12.23;;;;;21.30;100077.00;;;;2030116;29;20228;-49
2021/11/21 04:39:23;;;;;;;11.82;10.80;;;;;21.40;100084.00;;;;2031199;29;20311;-47
2021/11/21 04:40:24;;;;;;;11.90;10.70;;;;;21.30;100084.00;;;;2030790;29;20228;-48
2021/11/21 04:41:25;;;;;;;12.80;11.60;;;;;21.30;100080.00;;;;2031087;29;20686;-49
2021/11/21 04:42:25;;;;;;;12.10;11.00;;;;;21.40;100074.00;;;;2023894;29;20463;-49
2021/11/21 04:43:26;;;;;;;12.07;10.97;;;;;21.40;100069.00;;;;2023449;29;20214;-47
2021/11/21 04:44:26;;;;;;;13.13;11.83;;;;;21.30;100076.00;;;;2023275;29;20567;-47
2021/11/21 04:45:26;;;;;;;12.67;11.47;;;;;21.30;100068.00;;;;2023405;29;20230;-49
2021/11/21 04:46:27;;;;;;;12.83;11.67;;;;;21.30;100077.00;;;;2032653;28;20213;-49
2021/11/21 04:47:27;;;;;;;13.43;12.23;;;;;21.30;100073.00;;;;2032288;28;20283;-48
2021/11/21 04:48:28;;;;;;;13.80;12.50;;;;;21.40;100067.00;;;;2032571;28;20217;-49
2021/11/21 04:49:28;;;;;;;13.10;11.90;;;;;21.30;100064.00;;;;2030943;29;20218;-49
2021/11/21 04:50:29;;;;;;;14.10;12.37;;;;;21.40;100061.00;;;;2029709;29;20458;-47
2021/11/21 04:51:30;;;;;;;13.07;11.83;;;;;21.30;100064.00;;;;2031244;29;20221;-48
2021/11/21 04:52:30;;;;;;;13.07;11.77;;;;;21.30;100061.00;;;;2027243;29;20227;-48
2021/11/21 04:53:31;;;;;;;12.60;11.40;;;;;21.30;100055.00;;;;2021265;29;20461;-47
2021/11/21 04:54:32;;;;;;;12.27;11.18;;;;;21.30;100055.00;;;;2029285;29;20237;-51
2021/11/21 04:55:33;;;;;;;12.60;11.43;;;;;21.30;100045.00;;;;2032095;28;20229;-50
2021/11/21 04:56:34;;;;;;;12.52;11.43;;;;;21.30;100045.00;;;;2023756;29;20217;-49
2021/11/21 04:57:38;;;;;;;13.10;11.90;;;;;21.30;100045.00;;;;2032476;28;20688;-48